Time;durP1;ratioP1;P1;durP2;ratioP2;P2;SDS_P1;SDS_P2;PMS_P1;PMS_P2;Temp;Humidity;BMP_temperature;BMP_pressure;BME280_temperature;BME280_humidity;BME280_pressure;Samples;Min_cycle;Max_cycle;Signal;HPM_P1;HPM_P2
2023/04/04 00:02:00;;;;;;;4.87;1.60;;;1.80;1.00;;;;;;5040489;28;20701;-62
2023/04/04 00:04:27;;;;;;;2.40;1.43;;;1.80;54.00;;;;;;5038008;28;20207;-63
2023/04/04 00:06:54;;;;;;;3.67;1.20;;;1.80;17.00;;;;;;5012103;28;20217;-63
2023/04/04 00:09:21;;;;;;;2.87;1.47;;;1.80;1.00;;;;;;5044733;28;20206;-63
2023/04/04 00:11:49;;;;;;;4.80;1.40;;;1.80;99.90;;;;;;5035750;28;20306;-63
2023/04/04 00:14:17;;;;;;;3.20;1.23;;;1.60;99.90;;;;;;5040518;28;20200;-62
2023/04/04 00:16:43;;;;;;;2.13;1.40;;;1.70;1.00;;;;;;5022978;28;20314;-63
2023/04/04 00:19:16;;;;;;;1.93;1.30;;;1.60;99.90;;;;;;5041022;28;20818;-63
2023/04/04 00:21:43;;;;;;;3.27;1.23;;;1.60;1.00;;;;;;5005418;28;20220;-63
2023/04/04 00:24:10;;;;;;;3.37;2.10;;;1.50;99.90;;;;;;5035794;28;20196;-63
2023/04/04 00:26:37;;;;;;;7.60;1.70;;;1.50;99.90;;;;;;5026460;28;20204;-63
2023/04/04 00:29:05;;;;;;;5.10;1.87;;;1.40;1.00;;;;;;5037841;28;20369;-64
2023/04/04 00:31:32;;;;;;;3.10;1.70;;;1.50;1.00;;;;;;5026835;28;20202;-63
2023/04/04 00:33:59;;;;;;;6.23;1.63;;;1.60;1.00;;;;;;5036828;28;20207;-63
2023/04/04 00:36:26;;;;;;;2.63;1.60;;;1.60;1.00;;;;;;5013698;28;20236;-63
2023/04/04 00:38:52;;;;;;;2.40;1.47;;;1.60;1.00;;;;;;5038704;28;20210;-63
2023/04/04 00:41:19;;;;;;;7.53;2.07;;;1.50;99.90;;;;;;5031837;28;20204;-63
2023/04/04 00:43:46;;;;;;;2.73;1.40;;;1.50;99.90;;;;;;5038615;28;20203;-63
2023/04/04 00:46:17;;;;;;;2.87;1.53;;;1.60;1.00;;;;;;5021554;28;20730;-63
2023/04/04 00:48:44;;;;;;;3.87;1.60;;;1.60;1.00;;;;;;5040933;28;20242;-63
2023/04/04 00:51:11;;;;;;;2.20;1.10;;;1.70;99.90;;;;;;5043018;28;20410;-63
2023/04/04 00:53:38;;;;;;;3.13;1.37;;;1.70;99.90;;;;;;5011347;28;20303;-63
2023/04/04 00:56:05;;;;;;;4.23;1.93;;;1.70;99.90;;;;;;5040310;28;20308;-63
2023/04/04 00:58:32;;;;;;;2.97;1.50;;;1.70;99.90;;;;;;5034902;28;20200;-63
2023/04/04 01:01:00;;;;;;;4.87;1.77;;;1.60;99.90;;;;;;5039939;28;20216;-63
2023/04/04 01:03:29;;;;;;;2.57;1.70;;;1.50;94.70;;;;;;5023884;28;21091;-63
2023/04/04 01:05:56;;;;;;;2.77;1.30;;;1.50;99.90;;;;;;5033790;28;20204;-63
2023/04/04 01:08:26;;;;;;;2.87;1.70;;;1.50;99.90;;;;;;5011159;28;20251;-63
2023/04/04 01:10:52;;;;;;;3.13;1.30;;;1.30;99.90;;;;;;5044650;28;20220;-63
2023/04/04 01:13:19;;;;;;;2.37;1.40;;;1.30;99.90;;;;;;5029763;28;20205;-63
2023/04/04 01:15:46;;;;;;;3.83;1.67;;;1.30;1.00;;;;;;5039461;28;20225;-63
2023/04/04 01:18:16;;;;;;;1.80;1.43;;;1.40;1.00;;;;;;5027981;28;20211;-63
2023/04/04 01:20:52;;;;;;;3.47;1.50;;;1.20;99.90;;;;;;5041767;28;20210;-63
2023/04/04 01:23:24;;;;;;;4.33;1.70;;;1.00;1.00;;;;;;5012410;28;21423;-63
2023/04/04 01:26:01;;;;;;;2.33;1.30;;;0.80;7.30;;;;;;5040414;28;20205;-63
2023/04/04 01:28:28;;;;;;;3.87;1.40;;;0.70;1.00;;;;;;5030332;28;20457;-63
2023/04/04 01:30:55;;;;;;;3.50;1.50;;;0.50;1.00;;;;;;5042170;28;20452;-63
2023/04/04 01:33:28;;;;;;;3.23;1.70;;;0.50;99.90;;;;;;5024198;28;25271;-63
2023/04/04 01:36:04;;;;;;;2.83;1.50;;;0.60;99.90;;;;;;5035322;28;20232;-63
2023/04/04 01:38:41;;;;;;;5.30;1.53;;;0.50;99.90;;;;;;4999372;28;20214;-63
2023/04/04 01:41:12;;;;;;;3.03;1.33;;;0.30;99.90;;;;;;5043720;28;20197;-63
2023/04/04 01:43:38;;;;;;;6.37;1.53;;;0.20;99.90;;;;;;5023746;28;20229;-63
2023/04/04 01:46:06;;;;;;;4.60;1.67;;;0.20;1.00;;;;;;5041420;28;20215;-63
2023/04/04 01:48:33;;;;;;;1.93;1.30;;;0.40;1.00;;;;;;5036373;28;20250;-63
2023/04/04 01:51:01;;;;;;;4.40;1.37;;;0.30;1.00;;;;;;5044937;28;20234;-63
2023/04/04 01:53:28;;;;;;;4.30;1.73;;;0.40;1.00;;;;;;5035714;28;20315;-63
2023/04/04 01:55:54;;;;;;;1.63;1.27;;;0.40;1.00;;;;;;5026939;28;21027;-63
2023/04/04 01:58:23;;;;;;;5.07;1.87;;;0.30;1.00;;;;;;5035258;28;20213;-63
2023/04/04 02:00:49;;;;;;;1.67;1.37;;;0.30;1.00;;;;;;5038971;28;20223;-62
2023/04/04 02:03:16;;;;;;;4.50;1.77;;;0.20;1.00;;;;;;5032869;28;20205;-63
2023/04/04 02:05:43;;;;;;;2.73;1.77;;;0.10;1.00;;;;;;5044069;28;20204;-63
2023/04/04 02:08:11;;;;;;;3.47;1.93;;;0.10;1.00;;;;;;5044946;28;20617;-63
2023/04/04 02:10:38;;;;;;;1.73;1.37;;;0.10;1.00;;;;;;5015947;28;20209;-63
2023/04/04 02:13:05;;;;;;;4.27;1.37;;;0.10;1.00;;;;;;5052435;28;20192;-63
2023/04/04 02:15:33;;;;;;;4.27;1.43;;;0.10;1.00;;;;;;5032204;28;20200;-63
2023/04/04 02:18:00;;;;;;;1.87;1.17;;;0.10;1.00;;;;;;5040129;28;20692;-63
2023/04/04 02:20:27;;;;;;;5.57;2.30;;;0.10;1.00;;;;;;5031999;28;20207;-62
2023/04/04 02:22:55;;;;;;;2.07;1.67;;;0.00;1.00;;;;;;5045590;28;20197;-63
2023/04/04 02:25:23;;;;;;;1.47;1.23;;;0.00;1.00;;;;;;5017420;28;20200;-62
2023/04/04 02:27:50;;;;;;;2.13;1.30;;;0.00;1.00;;;;;;5044278;28;20312;-63
2023/04/04 02:30:18;;;;;;;3.00;1.50;;;0.00;1.00;;;;;;5033972;28;20317;-63
2023/04/04 02:32:47;;;;;;;3.70;1.67;;;0.00;1.00;;;;;;5038295;28;20199;-62
2023/04/04 02:35:15;;;;;;;2.83;1.30;;;0.00;1.00;;;;;;5035271;28;20204;-63
2023/04/04 02:37:45;;;;;;;2.50;1.60;;;0.00;1.00;;;;;;5037834;28;22106;-62
2023/04/04 02:40:12;;;;;;;1.37;1.20;;;-0.10;1.00;;;;;;5013938;28;20267;-63
2023/04/04 02:42:42;;;;;;;2.87;1.30;;;-0.10;1.00;;;;;;5050024;28;20204;-63
2023/04/04 02:45:10;;;;;;;3.27;1.80;;;-0.10;1.00;;;;;;5033336;28;20762;-63
2023/04/04 02:47:37;;;;;;;3.33;1.50;;;-0.20;1.00;;;;;;5046857;28;20278;-63
2023/04/04 02:50:07;;;;;;;2.50;1.50;;;-0.20;1.00;;;;;;5017328;28;20226;-62
2023/04/04 02:52:34;;;;;;;2.30;1.33;;;-0.30;1.00;;;;;;5019706;28;21000;-63
2023/04/04 02:55:00;;;;;;;1.67;1.37;;;-0.30;1.00;;;;;;5006609;28;20215;-62
2023/04/04 02:57:27;;;;;;;2.13;1.73;;;-0.20;1.00;;;;;;5026596;28;20878;-63
2023/04/04 02:59:54;;;;;;;3.63;1.43;;;-0.10;1.00;;;;;;5031716;28;20532;-62
2023/04/04 03:02:21;;;;;;;5.00;1.73;;;-0.10;1.00;;;;;;5014174;28;20207;-63
2023/04/04 03:04:47;;;;;;;4.73;1.57;;;0.00;1.00;;;;;;5042110;28;20645;-63
2023/04/04 03:07:15;;;;;;;2.90;1.57;;;0.00;1.00;;;;;;5015114;28;20196;-62
2023/04/04 03:09:44;;;;;;;2.13;1.60;;;-0.10;1.00;;;;;;5038402;28;20201;-63
2023/04/04 03:12:11;;;;;;;4.87;1.90;;;-0.10;1.00;;;;;;5012369;28;20211;-63
2023/04/04 03:14:37;;;;;;;4.87;1.70;;;-0.10;1.00;;;;;;5039199;28;20762;-62
2023/04/04 03:17:05;;;;;;;3.30;1.53;;;-0.10;1.00;;;;;;5030005;28;20269;-63
2023/04/04 03:19:32;;;;;;;1.73;1.40;;;-0.10;1.00;;;;;;5040675;28;20937;-63
2023/04/04 03:21:58;;;;;;;2.43;1.40;;;-0.20;1.00;;;;;;5016251;28;20210;-62
2023/04/04 03:24:27;;;;;;;2.10;1.60;;;-0.30;1.00;;;;;;5044970;28;20195;-63
2023/04/04 03:26:54;;;;;;;2.60;1.60;;;-0.30;1.00;;;;;;5012105;28;20350;-63
2023/04/04 03:29:21;;;;;;;2.50;1.33;;;-0.30;1.00;;;;;;5042200;28;20526;-63
2023/04/04 03:31:47;;;;;;;7.77;1.93;;;-0.40;1.00;;;;;;5021932;28;20317;-63
2023/04/04 03:34:14;;;;;;;4.03;1.80;;;-0.40;1.00;;;;;;5041528;28;20203;-63
2023/04/04 03:36:41;;;;;;;2.13;1.50;;;-0.40;1.00;;;;;;5017515;28;20698;-62
2023/04/04 03:39:08;;;;;;;5.93;1.33;;;-0.40;1.00;;;;;;5043602;28;20199;-63
2023/04/04 03:41:36;;;;;;;1.63;1.40;;;-0.40;1.00;;;;;;5041034;28;20433;-63
2023/04/04 03:44:04;;;;;;;2.87;1.63;;;-0.40;1.00;;;;;;5015544;28;20209;-63
2023/04/04 03:46:31;;;;;;;2.73;1.60;;;-0.40;1.00;;;;;;5039377;28;20198;-63
2023/04/04 03:48:58;;;;;;;3.20;2.07;;;-0.40;1.00;;;;;;5029936;28;20273;-63
2023/04/04 03:51:25;;;;;;;3.27;1.70;;;-0.50;1.00;;;;;;5032365;28;20394;-63
2023/04/04 03:53:51;;;;;;;3.40;1.77;;;-0.60;1.00;;;;;;5026014;28;20198;-62
2023/04/04 03:56:18;;;;;;;4.77;1.70;;;-0.60;1.00;;;;;;5036590;28;20239;-62
2023/04/04 03:58:47;;;;;;;5.73;1.77;;;-0.50;1.00;;;;;;5012396;28;20933;-62
2023/04/04 04:01:14;;;;;;;2.73;1.97;;;-0.50;1.00;;;;;;5039463;28;21021;-63
2023/04/04 04:03:40;;;;;;;5.83;2.17;;;-0.40;1.00;;;;;;5040436;28;20226;-63
2023/04/04 04:06:07;;;;;;;2.63;1.60;;;-0.30;1.00;;;;;;5049986;28;20214;-62
2023/04/04 04:08:34;;;;;;;2.63;2.17;;;-0.40;1.00;;;;;;5026620;28;21396;-63
2023/04/04 04:11:04;;;;;;;3.33;1.90;;;-0.40;1.00;;;;;;5049643;28;20220;-63
2023/04/04 04:13:31;;;;;;;5.20;1.87;;;-0.50;1.00;;;;;;5017795;28;20207;-63
2023/04/04 04:15:59;;;;;;;3.83;1.93;;;-0.40;1.00;;;;;;5047502;28;20908;-63
2023/04/04 04:18:26;;;;;;;3.60;2.30;;;-0.40;1.00;;;;;;5033171;28;20802;-62
2023/04/04 04:20:58;;;;;;;6.90;2.07;;;-0.40;1.00;;;;;;5043738;28;20198;-62
2023/04/04 04:23:24;;;;;;;2.97;1.73;;;-0.30;1.00;;;;;;5024371;28;20411;-62
2023/04/04 04:25:51;;;;;;;2.27;1.90;;;-0.40;1.00;;;;;;5046203;28;20609;-63
2023/04/04 04:28:18;;;;;;;5.13;2.13;;;-0.40;1.00;;;;;;5009465;28;20212;-62
2023/04/04 04:30:46;;;;;;;4.33;2.10;;;-0.30;1.00;;;;;;5044534;28;20259;-63
2023/04/04 04:33:14;;;;;;;2.10;1.87;;;-0.30;1.00;;;;;;5033807;28;20221;-63
2023/04/04 04:35:40;;;;;;;5.23;2.37;;;-0.30;1.00;;;;;;5048526;28;20199;-63
2023/04/04 04:38:08;;;;;;;3.57;2.40;;;-0.40;1.00;;;;;;5042606;28;20229;-63
2023/04/04 04:40:36;;;;;;;3.53;2.23;;;-0.40;1.00;;;;;;5030166;28;20277;-63
2023/04/04 04:43:03;;;;;;;3.67;2.30;;;-0.40;1.00;;;;;;5034649;28;20212;-62
2023/04/04 04:45:30;;;;;;;7.70;2.30;;;-0.40;1.00;;;;;;5025495;28;20386;-62
2023/04/04 04:47:57;;;;;;;4.13;2.00;;;-0.50;1.00;;;;;;5043204;28;21109;-62
2023/04/04 04:50:25;;;;;;;3.77;2.10;;;-0.60;1.00;;;;;;5032479;28;20228;-63
2023/04/04 04:52:52;;;;;;;6.97;2.10;;;-0.60;1.00;;;;;;5049169;28;20200;-62
2023/04/04 04:55:19;;;;;;;5.93;2.50;;;-0.60;1.00;;;;;;5027179;28;20299;-63
2023/04/04 04:57:47;;;;;;;3.63;2.73;;;-0.70;1.00;;;;;;5044602;28;20252;-63
2023/04/04 05:00:16;;;;;;;5.60;2.60;;;-0.70;1.00;;;;;;5015939;28;20221;-63
2023/04/04 05:02:42;;;;;;;5.60;2.77;;;-0.70;1.00;;;;;;5035129;28;20208;-63
2023/04/04 05:05:09;;;;;;;4.57;2.97;;;-0.60;1.00;;;;;;5035715;28;20674;-63
2023/04/04 05:07:37;;;;;;;5.63;2.60;;;-0.50;1.00;;;;;;5034232;28;20208;-63
2023/04/04 05:10:05;;;;;;;3.20;2.70;;;-0.60;1.00;;;;;;5045077;28;20198;-62
2023/04/04 05:12:31;;;;;;;4.77;2.30;;;-0.60;1.00;;;;;;5026826;28;20333;-62
2023/04/04 05:14:58;;;;;;;12.47;3.03;;;-0.60;1.00;;;;;;5026278;28;20194;-63
2023/04/04 05:17:25;;;;;;;3.40;2.60;;;-0.70;1.00;;;;;;5017959;28;20418;-63
2023/04/04 05:19:52;;;;;;;4.33;2.70;;;-0.70;1.00;;;;;;5046900;28;20211;-63
2023/04/04 05:22:19;;;;;;;3.67;2.63;;;-0.70;1.00;;;;;;5023719;28;20211;-63
2023/04/04 05:24:47;;;;;;;2.83;2.43;;;-0.80;1.00;;;;;;5051271;28;20262;-63
2023/04/04 05:27:14;;;;;;;4.40;2.40;;;-0.80;1.00;;;;;;5032264;28;20204;-64
2023/04/04 05:29:41;;;;;;;8.87;2.90;;;-0.80;1.00;;;;;;5048159;28;20694;-63
2023/04/04 05:32:07;;;;;;;4.03;2.80;;;-0.80;3.10;;;;;;5020560;28;20873;-63
2023/04/04 05:34:34;;;;;;;6.80;3.03;;;-0.80;10.10;;;;;;5047343;28;20590;-63
2023/04/04 05:37:01;;;;;;;8.00;3.60;;;-0.70;12.80;;;;;;5035849;28;20723;-63
2023/04/04 05:39:28;;;;;;;8.23;2.93;;;-0.70;9.10;;;;;;5042162;28;20212;-63
2023/04/04 05:41:56;;;;;;;6.13;3.23;;;-0.70;8.20;;;;;;5035966;28;20665;-63
2023/04/04 05:44:22;;;;;;;11.83;3.03;;;-0.70;7.80;;;;;;5030481;28;20685;-62
2023/04/04 05:46:50;;;;;;;5.23;2.97;;;-0.60;7.60;;;;;;5016745;28;21018;-63
2023/04/04 05:49:16;;;;;;;4.00;2.80;;;-0.50;7.50;;;;;;5034209;28;20244;-63
2023/04/04 05:51:43;;;;;;;3.70;2.77;;;-0.60;3.70;;;;;;5049473;28;20210;-63
2023/04/04 05:54:10;;;;;;;5.10;3.20;;;-0.50;8.20;;;;;;5028618;28;20213;-62
2023/04/04 05:56:37;;;;;;;7.80;3.07;;;-0.40;8.80;;;;;;5038786;28;20212;-62
2023/04/04 05:59:05;;;;;;;5.57;2.87;;;-0.50;8.40;;;;;;5030733;28;20205;-63
2023/04/04 06:01:32;;;;;;;6.40;3.20;;;-0.40;9.50;;;;;;5016449;28;20215;-63
2023/04/04 06:03:59;;;;;;;3.20;2.90;;;-0.40;5.30;;;;;;5048045;28;20195;-63
2023/04/04 06:06:26;;;;;;;3.77;3.30;;;-0.30;5.20;;;;;;5037815;28;20250;-63
2023/04/04 06:08:53;;;;;;;6.23;2.80;;;-0.30;4.90;;;;;;5014372;28;20215;-63
2023/04/04 06:11:20;;;;;;;3.40;3.10;;;-0.30;6.00;;;;;;5042502;28;20212;-62
2023/04/04 06:13:47;;;;;;;7.97;3.10;;;-0.20;1.00;;;;;;5034320;28;20294;-63
2023/04/04 06:16:15;;;;;;;12.93;3.20;;;-0.10;1.00;;;;;;5001348;28;20209;-63
2023/04/04 06:18:42;;;;;;;5.93;2.50;;;-0.10;1.00;;;;;;5041683;28;20231;-63
2023/04/04 06:21:09;;;;;;;6.40;3.53;;;0.00;1.00;;;;;;5045538;28;20284;-62
2023/04/04 06:23:36;;;;;;;7.37;3.00;;;-0.10;1.00;;;;;;5033165;28;20202;-63
2023/04/04 06:26:03;;;;;;;4.03;3.03;;;0.00;1.00;;;;;;5035098;28;20208;-63
2023/04/04 06:28:30;;;;;;;5.30;3.07;;;0.10;1.00;;;;;;5032584;28;20761;-62
2023/04/04 06:30:57;;;;;;;8.27;3.80;;;0.00;1.00;;;;;;5024045;28;20968;-63
2023/04/04 06:33:25;;;;;;;5.27;3.00;;;0.10;1.00;;;;;;5003681;28;20716;-62
2023/04/04 06:35:52;;;;;;;4.73;3.20;;;0.20;1.00;;;;;;5040839;28;20575;-63
2023/04/04 06:38:19;;;;;;;4.20;2.93;;;0.20;1.00;;;;;;5030132;28;20813;-63
2023/04/04 06:40:46;;;;;;;6.87;3.13;;;0.30;1.00;;;;;;5026015;28;20254;-63
2023/04/04 06:43:12;;;;;;;4.87;3.33;;;0.40;1.00;;;;;;5035153;28;20629;-62
2023/04/04 06:45:39;;;;;;;4.53;3.00;;;0.50;1.10;;;;;;5021621;28;20202;-63
2023/04/04 06:48:06;;;;;;;6.53;3.10;;;0.50;1.00;;;;;;5020771;28;20216;-63
2023/04/04 06:50:35;;;;;;;5.13;3.10;;;0.60;2.10;;;;;;5049018;28;20313;-63
2023/04/04 06:53:02;;;;;;;5.57;2.83;;;0.70;1.00;;;;;;5038710;28;20205;-63
2023/04/04 06:55:29;;;;;;;7.50;3.20;;;0.80;1.00;;;;;;5033439;28;20232;-63
2023/04/04 06:57:55;;;;;;;3.93;2.70;;;0.80;1.00;;;;;;5048111;28;20229;-63
2023/04/04 07:00:22;;;;;;;7.80;3.00;;;0.90;1.00;;;;;;5027900;28;20201;-63
2023/04/04 07:02:49;;;;;;;5.77;3.17;;;1.00;1.00;;;;;;5046198;28;20204;-63
2023/04/04 07:05:17;;;;;;;4.07;2.40;;;1.10;1.00;;;;;;5017725;28;20242;-63
2023/04/04 07:07:46;;;;;;;3.87;2.30;;;1.10;1.00;;;;;;5036604;28;20286;-63
2023/04/04 07:10:13;;;;;;;3.00;2.20;;;1.10;1.00;;;;;;5041715;28;20203;-63
2023/04/04 07:12:40;;;;;;;3.50;2.47;;;1.20;1.00;;;;;;5049990;28;20196;-63
2023/04/04 07:15:08;;;;;;;2.77;2.10;;;1.20;1.00;;;;;;5017156;28;21745;-63
2023/04/04 07:17:37;;;;;;;3.47;2.70;;;1.30;1.00;;;;;;5041326;28;20226;-62
2023/04/04 07:20:05;;;;;;;5.07;2.50;;;1.30;1.00;;;;;;5013244;28;20230;-63
2023/04/04 07:22:31;;;;;;;5.50;2.70;;;1.50;1.00;;;;;;5048958;28;20194;-63
2023/04/04 07:24:59;;;;;;;6.07;2.20;;;1.50;1.00;;;;;;5021910;28;20215;-63
2023/04/04 07:27:26;;;;;;;2.20;2.00;;;1.50;1.00;;;;;;5045000;28;20203;-63
2023/04/04 07:29:53;;;;;;;2.70;2.20;;;1.60;99.90;;;;;;5023119;28;20197;-63
2023/04/04 07:32:20;;;;;;;3.73;2.30;;;1.60;99.90;;;;;;5032849;28;20204;-62
2023/04/04 07:34:48;;;;;;;6.57;2.10;;;1.70;99.90;;;;;;5009979;28;20200;-63
2023/04/04 07:37:15;;;;;;;4.53;2.40;;;1.70;99.90;;;;;;5043833;28;20195;-62
2023/04/04 07:39:42;;;;;;;7.43;2.03;;;1.80;99.90;;;;;;5035580;28;20233;-63
2023/04/04 07:42:10;;;;;;;2.57;2.00;;;1.80;99.90;;;;;;5043966;28;20201;-63
2023/04/04 07:44:36;;;;;;;6.57;2.47;;;1.90;99.90;;;;;;5044035;28;20774;-63
2023/04/04 07:47:03;;;;;;;4.57;2.20;;;2.00;99.90;;;;;;5013579;28;20451;-63
2023/04/04 07:49:30;;;;;;;4.27;2.13;;;2.00;99.90;;;;;;5049110;28;20241;-63
2023/04/04 07:51:57;;;;;;;3.60;2.27;;;2.10;99.90;;;;;;5002306;28;20693;-63
2023/04/04 07:54:24;;;;;;;6.07;2.43;;;2.20;99.90;;;;;;5033579;28;20886;-63
2023/04/04 07:56:50;;;;;;;2.90;2.30;;;2.20;99.90;;;;;;5038312;28;20195;-63
2023/04/04 07:59:19;;;;;;;3.97;2.30;;;2.20;99.90;;;;;;5033321;28;20986;-63
2023/04/04 08:01:46;;;;;;;2.97;2.00;;;2.30;94.40;;;;;;5025357;28;20220;-63
2023/04/04 08:04:12;;;;;;;4.83;2.20;;;2.40;1.00;;;;;;5022965;28;20223;-63
2023/04/04 08:06:39;;;;;;;2.77;1.90;;;2.50;1.00;;;;;;5016832;28;20216;-63
2023/04/04 08:09:06;;;;;;;9.50;2.30;;;2.50;1.00;;;;;;5019161;28;21556;-63
2023/04/04 08:11:33;;;;;;;3.80;1.80;;;2.50;1.00;;;;;;5022282;28;20212;-63
2023/04/04 08:14:00;;;;;;;5.43;2.20;;;2.60;22.30;;;;;;5041832;28;20189;-63
2023/04/04 08:16:28;;;;;;;7.93;2.60;;;2.60;1.00;;;;;;5051036;28;20196;-63
2023/04/04 08:18:55;;;;;;;11.23;2.27;;;2.70;34.90;;;;;;5011554;28;20225;-63
2023/04/04 08:21:22;;;;;;;6.03;2.10;;;2.90;1.00;;;;;;5042713;28;20673;-63
2023/04/04 08:23:48;;;;;;;5.20;1.60;;;2.90;99.90;;;;;;4992967;28;20453;-63
2023/04/04 08:26:15;;;;;;;3.37;1.80;;;2.90;1.00;;;;;;5022252;28;20228;-63
2023/04/04 08:28:42;;;;;;;9.73;2.27;;;3.00;1.00;;;;;;5024931;28;20224;-63
2023/04/04 08:31:11;;;;;;;4.43;1.80;;;3.10;1.00;;;;;;5042181;28;20716;-63
2023/04/04 08:33:39;;;;;;;2.93;1.60;;;3.20;1.00;;;;;;5019002;28;20370;-63
2023/04/04 08:36:06;;;;;;;3.00;1.60;;;3.40;1.00;;;;;;5011973;28;20205;-63
2023/04/04 08:38:33;;;;;;;1.97;1.77;;;3.40;99.90;;;;;;5014020;28;20216;-63
2023/04/04 08:41:00;;;;;;;2.63;1.67;;;3.50;99.90;;;;;;5022254;28;20244;-62
2023/04/04 08:43:27;;;;;;;3.80;1.63;;;3.50;99.90;;;;;;5022924;28;20251;-63
2023/04/04 08:45:54;;;;;;;4.40;1.60;;;3.60;1.00;;;;;;5038385;28;20216;-63
2023/04/04 08:48:25;;;;;;;1.47;1.30;;;3.60;99.90;;;;;;5042000;28;20216;-63
2023/04/04 08:50:56;;;;;;;4.90;1.87;;;3.60;1.00;;;;;;5016614;28;20216;-64
2023/04/04 08:53:23;;;;;;;2.37;1.30;;;3.60;99.90;;;;;;5014486;28;20206;-63
2023/04/04 08:55:51;;;;;;;3.90;1.70;;;3.70;71.30;;;;;;5030418;28;21139;-63
2023/04/04 08:58:17;;;;;;;3.33;1.90;;;3.70;1.00;;;;;;5036011;28;20243;-63
2023/04/04 09:00:44;;;;;;;1.57;1.43;;;3.70;1.00;;;;;;5025797;28;21178;-63
2023/04/04 09:03:20;;;;;;;5.37;1.40;;;3.80;1.00;;;;;;5029374;28;20818;-63
2023/04/04 09:05:48;;;;;;;3.87;1.53;;;3.80;1.00;;;;;;4980579;28;20236;-63
2023/04/04 09:08:17;;;;;;;1.83;1.40;;;4.00;1.00;;;;;;5011107;28;20224;-63
2023/04/04 09:10:45;;;;;;;2.23;1.50;;;4.00;1.00;;;;;;5009160;28;20311;-63
2023/04/04 09:13:12;;;;;;;2.73;1.40;;;4.10;1.00;;;;;;5023505;28;20204;-63
2023/04/04 09:15:41;;;;;;;7.10;1.83;;;4.10;1.00;;;;;;5039581;28;20732;-63
2023/04/04 09:18:08;;;;;;;5.23;1.70;;;4.00;1.00;;;;;;5042563;28;20220;-62
2023/04/04 09:20:36;;;;;;;4.07;1.80;;;4.00;1.00;;;;;;5019976;28;20239;-63
2023/04/04 09:23:06;;;;;;;2.03;1.33;;;4.10;99.90;;;;;;5040930;28;20228;-63
2023/04/04 09:25:35;;;;;;;6.37;1.60;;;4.20;99.90;;;;;;4994362;28;20308;-63
2023/04/04 09:28:04;;;;;;;2.77;1.80;;;4.20;99.90;;;;;;5026037;28;20238;-63
2023/04/04 09:30:32;;;;;;;2.50;1.73;;;4.30;99.90;;;;;;5004272;28;20232;-63
2023/04/04 09:33:02;;;;;;;2.77;1.77;;;4.50;99.90;;;;;;5025693;28;20906;-63
2023/04/04 09:35:29;;;;;;;2.90;1.50;;;4.60;1.00;;;;;;5014862;28;21068;-63
2023/04/04 09:37:56;;;;;;;3.53;2.00;;;4.60;1.00;;;;;;4998159;28;21050;-63
2023/04/04 09:40:25;;;;;;;3.97;1.53;;;4.70;1.00;;;;;;4980523;28;20231;-63
2023/04/04 09:42:55;;;;;;;4.30;1.83;;;4.90;1.00;;;;;;5006402;28;20229;-63
2023/04/04 09:45:25;;;;;;;2.43;1.30;;;4.60;1.00;;;;;;5034084;28;20298;-63
2023/04/04 09:47:53;;;;;;;2.53;1.43;;;4.60;1.00;;;;;;5034869;28;20809;-63
2023/04/04 09:50:23;;;;;;;6.47;1.47;;;4.60;1.00;;;;;;5033247;28;20241;-64
2023/04/04 09:52:50;;;;;;;1.70;1.40;;;4.70;1.00;;;;;;5004718;28;20221;-63
2023/04/04 09:55:17;;;;;;;2.57;1.57;;;4.70;1.00;;;;;;5001409;28;20228;-63
2023/04/04 09:57:46;;;;;;;2.20;1.40;;;4.90;1.00;;;;;;4981657;28;20380;-63
2023/04/04 10:00:20;;;;;;;2.50;1.53;;;4.80;1.00;;;;;;5010936;28;20228;-63
2023/04/04 10:02:48;;;;;;;4.10;1.37;;;4.90;1.00;;;;;;5041520;28;20961;-63
2023/04/04 10:05:16;;;;;;;1.07;0.97;;;5.00;1.00;;;;;;5034862;28;20197;-62
2023/04/04 10:07:46;;;;;;;3.20;1.63;;;4.90;1.00;;;;;;5011436;28;20201;-63
2023/04/04 10:10:15;;;;;;;3.60;1.57;;;5.00;1.00;;;;;;5043932;28;20208;-63
2023/04/04 10:12:46;;;;;;;2.20;1.60;;;5.10;1.00;;;;;;4981642;28;20224;-63
2023/04/04 10:15:17;;;;;;;1.33;1.23;;;5.20;1.00;;;;;;5028443;22;21372;-63
2023/04/04 10:17:46;;;;;;;4.27;1.60;;;5.30;1.00;;;;;;5031245;28;20810;-63
2023/04/04 10:20:14;;;;;;;6.03;1.60;;;5.20;1.00;;;;;;5027754;28;20846;-63
2023/04/04 10:22:42;;;;;;;4.60;1.60;;;5.20;99.90;;;;;;5014496;28;20220;-62
2023/04/04 10:25:10;;;;;;;4.83;1.30;;;5.30;99.90;;;;;;5026862;28;20221;-63
2023/04/04 10:27:37;;;;;;;4.20;1.60;;;5.40;99.90;;;;;;4988670;28;20215;-63
2023/04/04 10:30:06;;;;;;;1.63;1.47;;;5.40;99.90;;;;;;5016058;28;20216;-63
2023/04/04 10:32:50;;;;;;;1.90;1.40;;;5.40;99.90;;;;;;5040245;28;20207;-63
2023/04/04 10:35:19;;;;;;;4.57;1.50;;;5.40;99.90;;;;;;5027911;28;20841;-62
2023/04/04 10:37:54;;;;;;;1.17;1.00;;;5.40;99.90;;;;;;5023110;28;20581;-63
2023/04/04 10:40:25;;;;;;;2.10;1.13;;;5.50;99.90;;;;;;5026230;28;20273;-63
2023/04/04 10:42:52;;;;;;;5.20;1.57;;;5.30;99.90;;;;;;4993702;28;20226;-64
2023/04/04 10:45:19;;;;;;;1.73;1.30;;;5.30;99.90;;;;;;5023405;28;20205;-63
2023/04/04 10:47:48;;;;;;;11.07;3.17;;;5.40;99.90;;;;;;5031627;28;20956;-63
2023/04/04 10:50:15;;;;;;;11.43;4.47;;;5.40;99.90;;;;;;5026458;28;20227;-63
2023/04/04 10:52:44;;;;;;;6.57;2.20;;;5.50;99.90;;;;;;5030709;28;20224;-63
2023/04/04 10:55:13;;;;;;;3.40;1.43;;;5.50;99.90;;;;;;5006680;28;21010;-64
2023/04/04 10:57:43;;;;;;;2.20;1.20;;;5.60;99.90;;;;;;4983268;28;20701;-63
2023/04/04 11:00:12;;;;;;;1.43;1.20;;;5.60;99.90;;;;;;5006658;28;20650;-63
2023/04/04 11:02:54;;;;;;;2.30;1.30;;;5.70;99.90;;;;;;5018539;28;20207;-63
2023/04/04 11:05:23;;;;;;;1.40;1.30;;;5.80;99.90;;;;;;5033879;28;20196;-64
2023/04/04 11:07:56;;;;;;;5.17;1.93;;;5.70;99.90;;;;;;5016029;28;20221;-63
2023/04/04 11:10:24;;;;;;;3.43;1.50;;;6.00;99.90;;;;;;5017219;28;20220;-63
2023/04/04 11:12:56;;;;;;;2.20;1.03;;;6.00;99.90;;;;;;5002615;28;20257;-63
2023/04/04 11:15:24;;;;;;;1.60;1.20;;;6.00;99.90;;;;;;4998601;28;20783;-63
2023/04/04 11:18:01;;;;;;;3.47;1.60;;;5.90;99.90;;;;;;5016797;28;20221;-63
2023/04/04 11:20:33;;;;;;;3.03;1.20;;;5.80;99.90;;;;;;5028045;28;21156;-63
2023/04/04 11:23:08;;;;;;;4.70;1.47;;;5.80;99.90;;;;;;5039017;28;20221;-63
2023/04/04 11:25:40;;;;;;;5.50;1.20;;;5.90;99.90;;;;;;5023075;28;20223;-64
2023/04/04 11:28:09;;;;;;;1.77;1.33;;;6.00;99.90;;;;;;5004618;28;20309;-63
2023/04/04 11:30:43;;;;;;;1.33;1.23;;;6.10;99.90;;;;;;5021949;28;20225;-63
2023/04/04 11:33:12;;;;;;;4.70;1.27;;;6.10;99.90;;;;;;5021352;28;20220;-63
2023/04/04 11:35:40;;;;;;;2.50;1.30;;;6.20;99.90;;;;;;5023165;28;20235;-63
2023/04/04 11:38:13;;;;;;;2.47;1.20;;;6.10;99.90;;;;;;5033552;28;20220;-63
2023/04/04 11:40:42;;;;;;;2.13;1.10;;;6.10;99.90;;;;;;5026896;28;20694;-63
2023/04/04 11:43:11;;;;;;;3.83;1.47;;;6.00;99.90;;;;;;4998391;28;20235;-63
2023/04/04 11:45:43;;;;;;;2.13;1.20;;;6.10;99.90;;;;;;5021201;28;21669;-63
2023/04/04 11:48:12;;;;;;;3.50;1.10;;;6.20;99.90;;;;;;5014495;28;20223;-63
2023/04/04 11:50:40;;;;;;;1.87;1.30;;;6.30;99.90;;;;;;5025947;28;20221;-63
2023/04/04 11:53:08;;;;;;;1.50;1.23;;;6.30;99.90;;;;;;5022213;28;20223;-63
2023/04/04 11:55:40;;;;;;;2.63;1.27;;;6.20;99.90;;;;;;5013937;28;20229;-63
2023/04/04 11:58:11;;;;;;;1.87;1.30;;;6.20;99.90;;;;;;4988371;28;20613;-64
2023/04/04 12:00:40;;;;;;;1.53;1.27;;;6.10;99.90;;;;;;5034561;28;20228;-63
2023/04/04 12:03:09;;;;;;;2.73;1.50;;;6.20;99.90;;;;;;5019329;28;20227;-63
2023/04/04 12:05:38;;;;;;;1.70;1.60;;;6.20;99.90;;;;;;4992000;28;20224;-63
2023/04/04 12:08:07;;;;;;;12.33;1.60;;;6.20;99.90;;;;;;5021424;28;20227;-63
2023/04/04 12:10:35;;;;;;;1.37;1.10;;;6.30;99.90;;;;;;5018157;28;20208;-64
2023/04/04 12:13:06;;;;;;;1.63;1.40;;;6.40;99.90;;;;;;5004429;28;20225;-63
2023/04/04 12:15:34;;;;;;;2.27;1.33;;;6.50;57.70;;;;;;4996209;28;20253;-63
2023/04/04 12:18:01;;;;;;;2.63;1.53;;;6.60;79.80;;;;;;5022954;28;20204;-64
2023/04/04 12:20:29;;;;;;;3.03;1.20;;;6.60;34.60;;;;;;5016438;28;20607;-63
2023/04/04 12:22:57;;;;;;;1.67;1.20;;;6.60;18.20;;;;;;5018799;28;20227;-63
2023/04/04 12:25:27;;;;;;;1.50;1.40;;;6.60;14.10;;;;;;5017479;28;20227;-63
2023/04/04 12:27:56;;;;;;;14.90;1.80;;;6.60;1.00;;;;;;5007718;28;20755;-63
2023/04/04 12:30:23;;;;;;;3.60;1.30;;;6.60;9.30;;;;;;4996204;28;20228;-63
2023/04/04 12:32:51;;;;;;;3.30;1.43;;;6.60;1.00;;;;;;5017399;28;20241;-63
2023/04/04 12:35:18;;;;;;;1.60;1.30;;;6.50;19.80;;;;;;5036943;28;20697;-63
2023/04/04 12:38:01;;;;;;;2.63;1.67;;;6.60;1.00;;;;;;5007001;28;20219;-63
2023/04/04 12:40:36;;;;;;;5.10;1.43;;;6.80;6.30;;;;;;5032450;28;20283;-63
2023/04/04 12:43:05;;;;;;;3.03;1.67;;;6.90;37.30;;;;;;5011536;28;22379;-63
2023/04/04 12:45:37;;;;;;;1.77;1.50;;;6.90;1.00;;;;;;5031521;28;20221;-63
2023/04/04 12:48:11;;;;;;;1.60;1.30;;;6.70;1.00;;;;;;4983047;28;20228;-63
2023/04/04 12:50:50;;;;;;;3.03;1.57;;;6.70;13.70;;;;;;5029578;28;20278;-63
2023/04/04 12:53:20;;;;;;;1.97;1.40;;;6.70;11.90;;;;;;5018681;28;20291;-63
2023/04/04 12:55:47;;;;;;;1.73;1.20;;;6.80;5.30;;;;;;5016835;28;20207;-63
2023/04/04 12:58:16;;;;;;;1.23;1.10;;;6.90;1.00;;;;;;5004085;28;20224;-63
2023/04/04 13:00:44;;;;;;;2.03;1.23;;;6.90;1.00;;;;;;5006341;28;20232;-63
2023/04/04 13:03:12;;;;;;;3.97;1.60;;;7.00;1.00;;;;;;4959559;28;21001;-63
2023/04/04 13:05:40;;;;;;;6.43;1.57;;;7.00;1.00;;;;;;5026294;28;20220;-63